sensor_id;sensor_type;location;lat;lon;timestamp;P1;durP1;ratioP1;P2;durP2;ratioP2
18754;SDS011;35061;47.664;9.166;2023-08-30T00:02:27;5.45;;;4.90;;
18754;SDS011;35061;47.664;9.166;2023-08-30T00:05:01;4.43;;;4.03;;
18754;SDS011;35061;47.664;9.166;2023-08-30T00:07:30;5.35;;;4.85;;
18754;SDS011;35061;47.664;9.166;2023-08-30T00:09:59;5.35;;;4.30;;
18754;SDS011;35061;47.664;9.166;2023-08-30T00:12:27;5.43;;;4.62;;
18754;SDS011;35061;47.664;9.166;2023-08-30T00:14:55;4.40;;;4.00;;
18754;SDS011;35061;47.664;9.166;2023-08-30T00:17:23;5.00;;;4.55;;
18754;SDS011;35061;47.664;9.166;2023-08-30T00:19:51;4.87;;;4.37;;
18754;SDS011;35061;47.664;9.166;2023-08-30T00:22:21;5.78;;;5.28;;
18754;SDS011;35061;47.664;9.166;2023-08-30T00:24:49;5.10;;;4.62;;
18754;SDS011;35061;47.664;9.166;2023-08-30T00:27:17;5.07;;;4.68;;
18754;SDS011;35061;47.664;9.166;2023-08-30T00:29:47;5.68;;;5.12;;
18754;SDS011;35061;47.664;9.166;2023-08-30T00:32:15;5.68;;;4.90;;
18754;SDS011;35061;47.664;9.166;2023-08-30T00:34:43;6.00;;;4.72;;
18754;SDS011;35061;47.664;9.166;2023-08-30T00:37:11;5.40;;;4.90;;
18754;SDS011;35061;47.664;9.166;2023-08-30T00:39:39;5.40;;;4.90;;
18754;SDS011;35061;47.664;9.166;2023-08-30T00:42:07;5.45;;;4.95;;
18754;SDS011;35061;47.664;9.166;2023-08-30T00:44:35;5.50;;;5.00;;
18754;SDS011;35061;47.664;9.166;2023-08-30T00:47:03;6.45;;;5.07;;
18754;SDS011;35061;47.664;9.166;2023-08-30T00:49:31;5.72;;;5.10;;
18754;SDS011;35061;47.664;9.166;2023-08-30T00:52:01;5.55;;;4.78;;
18754;SDS011;35061;47.664;9.166;2023-08-30T00:54:31;5.25;;;4.75;;
18754;SDS011;35061;47.664;9.166;2023-08-30T00:57:00;5.50;;;4.93;;
18754;SDS011;35061;47.664;9.166;2023-08-30T00:59:29;5.43;;;4.93;;
18754;SDS011;35061;47.664;9.166;2023-08-30T01:02:00;5.40;;;4.70;;
18754;SDS011;35061;47.664;9.166;2023-08-30T01:04:31;5.65;;;4.53;;
18754;SDS011;35061;47.664;9.166;2023-08-30T01:07:00;5.28;;;4.78;;
18754;SDS011;35061;47.664;9.166;2023-08-30T01:09:28;5.43;;;4.93;;
18754;SDS011;35061;47.664;9.166;2023-08-30T01:14:58;6.22;;;4.80;;
18754;SDS011;35061;47.664;9.166;2023-08-30T01:17:31;5.25;;;4.75;;
18754;SDS011;35061;47.664;9.166;2023-08-30T01:20:00;5.15;;;4.65;;
18754;SDS011;35061;47.664;9.166;2023-08-30T01:22:57;5.97;;;4.40;;
18754;SDS011;35061;47.664;9.166;2023-08-30T01:28:33;5.75;;;5.03;;
18754;SDS011;35061;47.664;9.166;2023-08-30T01:31:01;5.65;;;4.78;;
18754;SDS011;35061;47.664;9.166;2023-08-30T01:33:30;5.32;;;4.82;;
18754;SDS011;35061;47.664;9.166;2023-08-30T01:36:00;5.18;;;4.68;;
18754;SDS011;35061;47.664;9.166;2023-08-30T01:38:31;5.47;;;4.50;;
18754;SDS011;35061;47.664;9.166;2023-08-30T01:40:59;5.30;;;4.80;;
18754;SDS011;35061;47.664;9.166;2023-08-30T01:43:29;4.97;;;4.45;;
18754;SDS011;35061;47.664;9.166;2023-08-30T01:45:58;5.00;;;4.18;;
18754;SDS011;35061;47.664;9.166;2023-08-30T01:48:28;4.35;;;3.95;;
18754;SDS011;35061;47.664;9.166;2023-08-30T01:50:57;4.40;;;4.00;;
18754;SDS011;35061;47.664;9.166;2023-08-30T01:53:28;4.70;;;4.30;;
18754;SDS011;35061;47.664;9.166;2023-08-30T01:55:58;4.12;;;3.72;;
18754;SDS011;35061;47.664;9.166;2023-08-30T01:58:26;3.60;;;3.30;;
18754;SDS011;35061;47.664;9.166;2023-08-30T02:00:54;4.32;;;3.92;;
18754;SDS011;35061;47.664;9.166;2023-08-30T02:03:22;3.45;;;3.15;;
18754;SDS011;35061;47.664;9.166;2023-08-30T02:08:44;3.35;;;2.75;;
18754;SDS011;35061;47.664;9.166;2023-08-30T02:11:26;4.07;;;3.30;;
18754;SDS011;35061;47.664;9.166;2023-08-30T02:13:56;3.20;;;2.90;;
18754;SDS011;35061;47.664;9.166;2023-08-30T02:16:26;3.37;;;3.08;;
18754;SDS011;35061;47.664;9.166;2023-08-30T02:18:55;3.60;;;3.30;;
18754;SDS011;35061;47.664;9.166;2023-08-30T02:21:24;3.08;;;2.78;;
18754;SDS011;35061;47.664;9.166;2023-08-30T02:23:52;3.53;;;3.22;;
18754;SDS011;35061;47.664;9.166;2023-08-30T02:26:20;3.85;;;3.45;;
18754;SDS011;35061;47.664;9.166;2023-08-30T02:28:48;4.00;;;3.25;;
18754;SDS011;35061;47.664;9.166;2023-08-30T02:31:16;3.42;;;3.12;;
18754;SDS011;35061;47.664;9.166;2023-08-30T02:33:44;3.35;;;3.05;;
18754;SDS011;35061;47.664;9.166;2023-08-30T02:36:12;3.80;;;3.50;;
18754;SDS011;35061;47.664;9.166;2023-08-30T02:38:40;3.62;;;3.17;;
18754;SDS011;35061;47.664;9.166;2023-08-30T02:41:08;3.45;;;3.15;;
18754;SDS011;35061;47.664;9.166;2023-08-30T02:43:37;4.43;;;3.50;;
18754;SDS011;35061;47.664;9.166;2023-08-30T02:46:05;3.58;;;3.20;;
18754;SDS011;35061;47.664;9.166;2023-08-30T02:48:34;3.87;;;3.50;;
18754;SDS011;35061;47.664;9.166;2023-08-30T02:51:01;4.32;;;3.47;;
18754;SDS011;35061;47.664;9.166;2023-08-30T02:53:29;4.03;;;3.45;;
18754;SDS011;35061;47.664;9.166;2023-08-30T02:55:57;3.40;;;3.10;;
18754;SDS011;35061;47.664;9.166;2023-08-30T02:58:25;3.70;;;3.40;;
18754;SDS011;35061;47.664;9.166;2023-08-30T03:00:53;3.50;;;3.20;;
18754;SDS011;35061;47.664;9.166;2023-08-30T03:03:21;3.40;;;3.10;;
18754;SDS011;35061;47.664;9.166;2023-08-30T03:05:49;3.75;;;3.42;;
18754;SDS011;35061;47.664;9.166;2023-08-30T03:08:17;4.35;;;3.47;;
18754;SDS011;35061;47.664;9.166;2023-08-30T03:10:45;4.20;;;3.60;;
18754;SDS011;35061;47.664;9.166;2023-08-30T03:13:13;3.97;;;3.67;;
18754;SDS011;35061;47.664;9.166;2023-08-30T03:15:41;4.70;;;3.72;;
18754;SDS011;35061;47.664;9.166;2023-08-30T03:18:09;3.70;;;3.40;;
18754;SDS011;35061;47.664;9.166;2023-08-30T03:20:37;4.03;;;3.72;;
18754;SDS011;35061;47.664;9.166;2023-08-30T03:23:06;3.40;;;3.05;;
18754;SDS011;35061;47.664;9.166;2023-08-30T03:25:34;4.72;;;3.50;;
18754;SDS011;35061;47.664;9.166;2023-08-30T03:28:02;4.90;;;3.70;;
18754;SDS011;35061;47.664;9.166;2023-08-30T03:30:30;3.75;;;3.40;;
18754;SDS011;35061;47.664;9.166;2023-08-30T03:32:58;4.10;;;3.70;;
18754;SDS011;35061;47.664;9.166;2023-08-30T03:35:27;3.50;;;3.20;;
18754;SDS011;35061;47.664;9.166;2023-08-30T03:37:55;3.95;;;3.65;;
18754;SDS011;35061;47.664;9.166;2023-08-30T03:40:23;4.25;;;3.67;;
18754;SDS011;35061;47.664;9.166;2023-08-30T03:42:51;4.40;;;3.72;;
18754;SDS011;35061;47.664;9.166;2023-08-30T03:45:19;5.00;;;3.95;;
18754;SDS011;35061;47.664;9.166;2023-08-30T03:47:47;4.82;;;3.62;;
18754;SDS011;35061;47.664;9.166;2023-08-30T03:50:15;3.92;;;3.53;;
18754;SDS011;35061;47.664;9.166;2023-08-30T03:52:43;4.40;;;3.72;;
18754;SDS011;35061;47.664;9.166;2023-08-30T03:55:11;4.30;;;3.78;;
18754;SDS011;35061;47.664;9.166;2023-08-30T03:57:39;3.83;;;3.42;;
18754;SDS011;35061;47.664;9.166;2023-08-30T04:00:07;3.95;;;3.58;;
18754;SDS011;35061;47.664;9.166;2023-08-30T04:02:35;4.03;;;3.65;;
18754;SDS011;35061;47.664;9.166;2023-08-30T04:05:03;4.47;;;3.75;;
18754;SDS011;35061;47.664;9.166;2023-08-30T04:07:35;4.20;;;3.87;;
18754;SDS011;35061;47.664;9.166;2023-08-30T04:10:03;3.83;;;3.53;;
18754;SDS011;35061;47.664;9.166;2023-08-30T04:12:35;3.95;;;3.60;;
18754;SDS011;35061;47.664;9.166;2023-08-30T04:15:03;3.72;;;3.42;;
18754;SDS011;35061;47.664;9.166;2023-08-30T04:17:31;3.45;;;3.15;;
18754;SDS011;35061;47.664;9.166;2023-08-30T04:19:59;3.67;;;3.37;;
18754;SDS011;35061;47.664;9.166;2023-08-30T04:22:30;3.33;;;3.03;;
18754;SDS011;35061;47.664;9.166;2023-08-30T04:24:58;3.17;;;2.97;;
18754;SDS011;35061;47.664;9.166;2023-08-30T04:27:26;3.20;;;2.92;;
18754;SDS011;35061;47.664;9.166;2023-08-30T04:29:54;3.35;;;3.05;;
18754;SDS011;35061;47.664;9.166;2023-08-30T04:32:22;3.25;;;2.95;;
18754;SDS011;35061;47.664;9.166;2023-08-30T04:34:50;3.58;;;3.28;;
18754;SDS011;35061;47.664;9.166;2023-08-30T04:37:18;4.12;;;3.40;;
18754;SDS011;35061;47.664;9.166;2023-08-30T04:39:49;3.35;;;3.05;;
18754;SDS011;35061;47.664;9.166;2023-08-30T04:42:17;3.90;;;3.60;;
18754;SDS011;35061;47.664;9.166;2023-08-30T04:44:45;3.12;;;2.92;;
18754;SDS011;35061;47.664;9.166;2023-08-30T04:47:13;3.75;;;3.45;;
18754;SDS011;35061;47.664;9.166;2023-08-30T04:49:41;4.12;;;3.72;;
18754;SDS011;35061;47.664;9.166;2023-08-30T04:52:09;4.03;;;3.40;;
18754;SDS011;35061;47.664;9.166;2023-08-30T04:54:37;3.95;;;3.62;;
18754;SDS011;35061;47.664;9.166;2023-08-30T04:57:05;5.12;;;3.80;;
18754;SDS011;35061;47.664;9.166;2023-08-30T04:59:33;4.12;;;3.53;;
18754;SDS011;35061;47.664;9.166;2023-08-30T05:02:00;6.37;;;3.85;;
18754;SDS011;35061;47.664;9.166;2023-08-30T05:04:28;3.92;;;3.62;;
18754;SDS011;35061;47.664;9.166;2023-08-30T05:06:56;3.75;;;3.45;;
18754;SDS011;35061;47.664;9.166;2023-08-30T05:09:24;3.55;;;3.25;;
18754;SDS011;35061;47.664;9.166;2023-08-30T05:11:52;3.58;;;3.28;;
18754;SDS011;35061;47.664;9.166;2023-08-30T05:14:21;3.47;;;2.70;;
18754;SDS011;35061;47.664;9.166;2023-08-30T05:16:50;3.03;;;2.72;;
18754;SDS011;35061;47.664;9.166;2023-08-30T05:19:18;3.40;;;3.10;;
18754;SDS011;35061;47.664;9.166;2023-08-30T05:21:46;3.28;;;2.97;;
18754;SDS011;35061;47.664;9.166;2023-08-30T05:24:14;3.00;;;2.80;;
18754;SDS011;35061;47.664;9.166;2023-08-30T05:26:42;3.53;;;2.90;;
18754;SDS011;35061;47.664;9.166;2023-08-30T05:29:10;3.85;;;2.50;;
18754;SDS011;35061;47.664;9.166;2023-08-30T05:31:38;2.92;;;2.30;;
18754;SDS011;35061;47.664;9.166;2023-08-30T05:34:06;3.10;;;2.60;;
18754;SDS011;35061;47.664;9.166;2023-08-30T05:36:34;5.32;;;3.90;;
18754;SDS011;35061;47.664;9.166;2023-08-30T05:39:02;3.28;;;2.92;;
18754;SDS011;35061;47.664;9.166;2023-08-30T05:41:30;3.58;;;3.25;;
18754;SDS011;35061;47.664;9.166;2023-08-30T05:43:58;2.85;;;2.55;;
18754;SDS011;35061;47.664;9.166;2023-08-30T05:46:26;3.40;;;2.83;;
18754;SDS011;35061;47.664;9.166;2023-08-30T05:48:54;2.90;;;2.60;;
18754;SDS011;35061;47.664;9.166;2023-08-30T05:51:22;2.90;;;2.60;;
18754;SDS011;35061;47.664;9.166;2023-08-30T05:53:50;3.37;;;3.08;;
18754;SDS011;35061;47.664;9.166;2023-08-30T05:56:18;3.85;;;2.87;;
18754;SDS011;35061;47.664;9.166;2023-08-30T05:58:46;4.78;;;3.05;;
18754;SDS011;35061;47.664;9.166;2023-08-30T06:01:14;3.58;;;3.28;;
18754;SDS011;35061;47.664;9.166;2023-08-30T06:03:42;3.90;;;3.50;;
18754;SDS011;35061;47.664;9.166;2023-08-30T06:06:10;4.80;;;4.40;;
18754;SDS011;35061;47.664;9.166;2023-08-30T06:08:38;4.60;;;4.20;;
18754;SDS011;35061;47.664;9.166;2023-08-30T06:11:06;5.35;;;4.85;;
18754;SDS011;35061;47.664;9.166;2023-08-30T06:13:34;6.40;;;5.80;;
18754;SDS011;35061;47.664;9.166;2023-08-30T06:16:02;6.80;;;5.35;;
18754;SDS011;35061;47.664;9.166;2023-08-30T06:18:30;7.28;;;5.95;;
18754;SDS011;35061;47.664;9.166;2023-08-30T06:20:59;6.97;;;6.05;;
18754;SDS011;35061;47.664;9.166;2023-08-30T06:23:27;8.65;;;6.62;;
18754;SDS011;35061;47.664;9.166;2023-08-30T06:25:58;8.48;;;7.00;;
18754;SDS011;35061;47.664;9.166;2023-08-30T06:28:28;7.85;;;6.47;;
18754;SDS011;35061;47.664;9.166;2023-08-30T06:30:56;7.87;;;6.95;;
18754;SDS011;35061;47.664;9.166;2023-08-30T06:33:25;7.70;;;7.00;;
18754;SDS011;35061;47.664;9.166;2023-08-30T06:35:52;8.25;;;6.72;;
18754;SDS011;35061;47.664;9.166;2023-08-30T06:38:22;8.23;;;6.75;;
18754;SDS011;35061;47.664;9.166;2023-08-30T06:40:50;7.50;;;6.47;;
18754;SDS011;35061;47.664;9.166;2023-08-30T06:43:18;8.00;;;6.37;;
18754;SDS011;35061;47.664;9.166;2023-08-30T06:45:46;10.25;;;6.65;;
18754;SDS011;35061;47.664;9.166;2023-08-30T06:48:14;8.05;;;6.03;;
18754;SDS011;35061;47.664;9.166;2023-08-30T06:50:42;7.82;;;6.70;;
18754;SDS011;35061;47.664;9.166;2023-08-30T06:53:10;9.00;;;7.22;;
18754;SDS011;35061;47.664;9.166;2023-08-30T06:55:38;9.38;;;7.12;;
18754;SDS011;35061;47.664;9.166;2023-08-30T06:58:06;8.70;;;7.12;;
18754;SDS011;35061;47.664;9.166;2023-08-30T07:00:34;8.93;;;7.70;;
18754;SDS011;35061;47.664;9.166;2023-08-30T07:03:02;10.15;;;7.60;;
18754;SDS011;35061;47.664;9.166;2023-08-30T07:05:31;9.25;;;7.53;;
18754;SDS011;35061;47.664;9.166;2023-08-30T07:07:58;9.65;;;7.20;;
18754;SDS011;35061;47.664;9.166;2023-08-30T07:10:26;8.70;;;7.57;;
18754;SDS011;35061;47.664;9.166;2023-08-30T07:12:54;10.10;;;7.32;;
18754;SDS011;35061;47.664;9.166;2023-08-30T07:15:22;8.75;;;7.55;;
18754;SDS011;35061;47.664;9.166;2023-08-30T07:17:50;10.00;;;8.38;;
18754;SDS011;35061;47.664;9.166;2023-08-30T07:20:21;8.82;;;7.28;;
18754;SDS011;35061;47.664;9.166;2023-08-30T07:22:49;11.07;;;7.35;;
18754;SDS011;35061;47.664;9.166;2023-08-30T07:25:17;8.10;;;6.65;;
18754;SDS011;35061;47.664;9.166;2023-08-30T07:27:45;8.13;;;6.75;;
18754;SDS011;35061;47.664;9.166;2023-08-30T07:30:14;8.63;;;7.72;;
18754;SDS011;35061;47.664;9.166;2023-08-30T07:32:42;10.57;;;7.57;;
18754;SDS011;35061;47.664;9.166;2023-08-30T07:35:10;9.50;;;8.00;;
18754;SDS011;35061;47.664;9.166;2023-08-30T07:37:40;7.93;;;7.12;;
18754;SDS011;35061;47.664;9.166;2023-08-30T07:40:08;7.90;;;6.55;;
18754;SDS011;35061;47.664;9.166;2023-08-30T07:42:37;9.52;;;6.57;;
18754;SDS011;35061;47.664;9.166;2023-08-30T07:45:05;8.05;;;6.28;;
18754;SDS011;35061;47.664;9.166;2023-08-30T07:47:34;7.55;;;5.80;;
18754;SDS011;35061;47.664;9.166;2023-08-30T07:50:04;6.37;;;5.78;;
18754;SDS011;35061;47.664;9.166;2023-08-30T07:52:32;6.28;;;5.68;;
18754;SDS011;35061;47.664;9.166;2023-08-30T07:55:10;5.65;;;5.15;;
18754;SDS011;35061;47.664;9.166;2023-08-30T07:57:38;4.80;;;4.40;;
18754;SDS011;35061;47.664;9.166;2023-08-30T08:00:07;3.95;;;3.12;;
18754;SDS011;35061;47.664;9.166;2023-08-30T08:02:35;5.40;;;4.45;;
18754;SDS011;35061;47.664;9.166;2023-08-30T08:05:03;4.07;;;3.67;;
18754;SDS011;35061;47.664;9.166;2023-08-30T08:07:32;5.20;;;3.35;;
18754;SDS011;35061;47.664;9.166;2023-08-30T08:10:00;2.75;;;2.40;;
18754;SDS011;35061;47.664;9.166;2023-08-30T08:12:28;3.05;;;2.75;;
18754;SDS011;35061;47.664;9.166;2023-08-30T08:14:56;4.10;;;2.70;;
18754;SDS011;35061;47.664;9.166;2023-08-30T08:17:24;5.28;;;3.47;;
18754;SDS011;35061;47.664;9.166;2023-08-30T08:19:52;4.20;;;3.50;;
18754;SDS011;35061;47.664;9.166;2023-08-30T08:22:20;4.87;;;4.47;;
18754;SDS011;35061;47.664;9.166;2023-08-30T08:24:48;4.80;;;4.12;;
18754;SDS011;35061;47.664;9.166;2023-08-30T08:27:17;3.65;;;3.35;;
18754;SDS011;35061;47.664;9.166;2023-08-30T08:29:45;3.60;;;3.30;;
18754;SDS011;35061;47.664;9.166;2023-08-30T08:32:13;4.70;;;3.72;;
18754;SDS011;35061;47.664;9.166;2023-08-30T08:34:41;3.90;;;3.20;;
18754;SDS011;35061;47.664;9.166;2023-08-30T08:37:09;3.75;;;3.42;;
18754;SDS011;35061;47.664;9.166;2023-08-30T08:39:37;5.68;;;3.40;;
18754;SDS011;35061;47.664;9.166;2023-08-30T08:42:05;3.87;;;3.45;;
18754;SDS011;35061;47.664;9.166;2023-08-30T08:44:34;4.40;;;3.33;;
18754;SDS011;35061;47.664;9.166;2023-08-30T08:47:04;5.43;;;4.10;;
18754;SDS011;35061;47.664;9.166;2023-08-30T08:49:32;5.53;;;4.78;;
18754;SDS011;35061;47.664;9.166;2023-08-30T08:52:00;5.95;;;4.22;;
18754;SDS011;35061;47.664;9.166;2023-08-30T08:54:41;8.65;;;4.57;;
18754;SDS011;35061;47.664;9.166;2023-08-30T08:57:10;5.72;;;4.55;;
18754;SDS011;35061;47.664;9.166;2023-08-30T08:59:38;3.92;;;3.53;;
18754;SDS011;35061;47.664;9.166;2023-08-30T09:02:06;3.85;;;3.53;;
18754;SDS011;35061;47.664;9.166;2023-08-30T09:04:38;4.30;;;3.67;;
18754;SDS011;35061;47.664;9.166;2023-08-30T09:07:07;3.55;;;3.25;;
18754;SDS011;35061;47.664;9.166;2023-08-30T09:09:36;4.53;;;4.10;;
18754;SDS011;35061;47.664;9.166;2023-08-30T09:12:04;4.80;;;3.78;;
18754;SDS011;35061;47.664;9.166;2023-08-30T09:14:32;4.57;;;3.87;;
18754;SDS011;35061;47.664;9.166;2023-08-30T09:17:01;3.85;;;3.30;;
18754;SDS011;35061;47.664;9.166;2023-08-30T09:19:30;4.20;;;3.10;;
18754;SDS011;35061;47.664;9.166;2023-08-30T09:21:58;4.03;;;3.55;;
18754;SDS011;35061;47.664;9.166;2023-08-30T09:24:37;4.97;;;4.25;;
18754;SDS011;35061;47.664;9.166;2023-08-30T09:27:07;3.47;;;3.17;;
18754;SDS011;35061;47.664;9.166;2023-08-30T09:29:35;3.50;;;3.20;;
18754;SDS011;35061;47.664;9.166;2023-08-30T09:32:03;3.15;;;2.90;;
18754;SDS011;35061;47.664;9.166;2023-08-30T09:34:31;5.75;;;3.45;;
18754;SDS011;35061;47.664;9.166;2023-08-30T09:36:59;3.40;;;3.10;;
18754;SDS011;35061;47.664;9.166;2023-08-30T09:39:32;3.10;;;2.80;;
18754;SDS011;35061;47.664;9.166;2023-08-30T09:42:01;3.03;;;2.72;;
18754;SDS011;35061;47.664;9.166;2023-08-30T09:44:29;3.17;;;2.90;;
18754;SDS011;35061;47.664;9.166;2023-08-30T09:46:57;2.30;;;2.10;;
18754;SDS011;35061;47.664;9.166;2023-08-30T09:49:26;3.03;;;2.80;;
18754;SDS011;35061;47.664;9.166;2023-08-30T09:51:54;3.33;;;3.00;;
18754;SDS011;35061;47.664;9.166;2023-08-30T09:54:25;3.47;;;3.17;;
18754;SDS011;35061;47.664;9.166;2023-08-30T09:56:59;4.10;;;2.80;;
18754;SDS011;35061;47.664;9.166;2023-08-30T09:59:28;3.30;;;2.75;;
18754;SDS011;35061;47.664;9.166;2023-08-30T10:01:56;2.90;;;2.70;;
18754;SDS011;35061;47.664;9.166;2023-08-30T10:04:25;2.62;;;2.42;;
18754;SDS011;35061;47.664;9.166;2023-08-30T10:06:55;2.55;;;2.35;;
18754;SDS011;35061;47.664;9.166;2023-08-30T10:09:25;3.17;;;2.87;;
18754;SDS011;35061;47.664;9.166;2023-08-30T10:11:53;3.25;;;2.65;;
18754;SDS011;35061;47.664;9.166;2023-08-30T10:14:22;2.72;;;2.53;;
18754;SDS011;35061;47.664;9.166;2023-08-30T10:16:51;3.60;;;3.10;;
18754;SDS011;35061;47.664;9.166;2023-08-30T10:21:53;2.50;;;2.30;;
18754;SDS011;35061;47.664;9.166;2023-08-30T10:24:33;2.03;;;1.92;;
18754;SDS011;35061;47.664;9.166;2023-08-30T10:27:25;2.35;;;2.15;;
18754;SDS011;35061;47.664;9.166;2023-08-30T10:29:55;2.55;;;2.10;;
18754;SDS011;35061;47.664;9.166;2023-08-30T10:32:24;2.37;;;2.17;;
18754;SDS011;35061;47.664;9.166;2023-08-30T10:34:52;2.47;;;2.28;;
18754;SDS011;35061;47.664;9.166;2023-08-30T10:37:24;3.20;;;2.90;;
18754;SDS011;35061;47.664;9.166;2023-08-30T10:39:59;2.60;;;2.40;;
18754;SDS011;35061;47.664;9.166;2023-08-30T10:42:28;2.65;;;2.45;;
18754;SDS011;35061;47.664;9.166;2023-08-30T10:44:56;2.42;;;2.22;;
18754;SDS011;35061;47.664;9.166;2023-08-30T10:47:28;2.47;;;2.28;;
18754;SDS011;35061;47.664;9.166;2023-08-30T10:49:59;2.28;;;2.08;;
18754;SDS011;35061;47.664;9.166;2023-08-30T10:52:28;2.80;;;2.40;;
18754;SDS011;35061;47.664;9.166;2023-08-30T10:55:06;2.50;;;2.30;;
18754;SDS011;35061;47.664;9.166;2023-08-30T10:57:36;3.97;;;2.53;;
18754;SDS011;35061;47.664;9.166;2023-08-30T11:02:46;1.98;;;1.87;;
18754;SDS011;35061;47.664;9.166;2023-08-30T11:05:17;2.10;;;2.00;;
18754;SDS011;35061;47.664;9.166;2023-08-30T11:07:46;2.65;;;2.10;;
18754;SDS011;35061;47.664;9.166;2023-08-30T11:10:16;1.90;;;1.70;;
18754;SDS011;35061;47.664;9.166;2023-08-30T11:12:45;1.90;;;1.80;;
18754;SDS011;35061;47.664;9.166;2023-08-30T11:15:13;2.25;;;2.15;;
18754;SDS011;35061;47.664;9.166;2023-08-30T11:17:42;2.00;;;1.90;;
18754;SDS011;35061;47.664;9.166;2023-08-30T11:20:11;2.58;;;2.25;;
18754;SDS011;35061;47.664;9.166;2023-08-30T11:22:44;2.35;;;1.90;;
18754;SDS011;35061;47.664;9.166;2023-08-30T11:25:14;1.85;;;1.70;;
18754;SDS011;35061;47.664;9.166;2023-08-30T11:27:43;2.10;;;1.90;;
18754;SDS011;35061;47.664;9.166;2023-08-30T11:30:11;1.92;;;1.83;;
18754;SDS011;35061;47.664;9.166;2023-08-30T11:32:40;1.90;;;1.48;;
18754;SDS011;35061;47.664;9.166;2023-08-30T11:35:10;1.70;;;1.60;;
18754;SDS011;35061;47.664;9.166;2023-08-30T11:37:39;1.58;;;1.48;;
18754;SDS011;35061;47.664;9.166;2023-08-30T11:40:08;1.50;;;1.40;;
18754;SDS011;35061;47.664;9.166;2023-08-30T11:42:39;1.62;;;1.52;;
18754;SDS011;35061;47.664;9.166;2023-08-30T11:45:07;1.60;;;1.33;;
18754;SDS011;35061;47.664;9.166;2023-08-30T11:47:36;1.30;;;1.20;;
18754;SDS011;35061;47.664;9.166;2023-08-30T11:50:08;1.60;;;1.50;;
18754;SDS011;35061;47.664;9.166;2023-08-30T11:52:38;1.60;;;1.50;;
18754;SDS011;35061;47.664;9.166;2023-08-30T11:55:07;1.58;;;1.48;;
18754;SDS011;35061;47.664;9.166;2023-08-30T11:57:35;1.45;;;1.33;;
18754;SDS011;35061;47.664;9.166;2023-08-30T12:00:10;1.40;;;1.30;;
18754;SDS011;35061;47.664;9.166;2023-08-30T12:02:42;1.92;;;1.52;;
18754;SDS011;35061;47.664;9.166;2023-08-30T12:05:12;1.42;;;1.33;;
18754;SDS011;35061;47.664;9.166;2023-08-30T12:07:41;1.50;;;1.40;;
18754;SDS011;35061;47.664;9.166;2023-08-30T12:10:10;1.50;;;1.40;;
18754;SDS011;35061;47.664;9.166;2023-08-30T12:12:43;1.60;;;1.50;;
18754;SDS011;35061;47.664;9.166;2023-08-30T12:15:13;1.90;;;1.80;;
18754;SDS011;35061;47.664;9.166;2023-08-30T12:17:44;1.87;;;1.50;;
18754;SDS011;35061;47.664;9.166;2023-08-30T12:20:18;2.10;;;1.90;;
18754;SDS011;35061;47.664;9.166;2023-08-30T12:22:51;1.87;;;1.70;;
18754;SDS011;35061;47.664;9.166;2023-08-30T12:25:20;4.25;;;1.77;;
18754;SDS011;35061;47.664;9.166;2023-08-30T12:27:50;1.42;;;1.33;;
18754;SDS011;35061;47.664;9.166;2023-08-30T12:30:19;2.70;;;1.80;;
18754;SDS011;35061;47.664;9.166;2023-08-30T12:32:47;1.90;;;1.67;;
18754;SDS011;35061;47.664;9.166;2023-08-30T12:35:16;1.90;;;1.80;;
18754;SDS011;35061;47.664;9.166;2023-08-30T12:37:44;2.37;;;1.90;;
18754;SDS011;35061;47.664;9.166;2023-08-30T12:40:12;1.70;;;1.60;;
18754;SDS011;35061;47.664;9.166;2023-08-30T12:42:40;1.70;;;1.60;;
18754;SDS011;35061;47.664;9.166;2023-08-30T12:45:08;1.90;;;1.75;;
18754;SDS011;35061;47.664;9.166;2023-08-30T12:47:36;1.62;;;1.52;;
18754;SDS011;35061;47.664;9.166;2023-08-30T12:50:04;1.67;;;1.58;;
18754;SDS011;35061;47.664;9.166;2023-08-30T12:52:32;1.50;;;1.40;;
18754;SDS011;35061;47.664;9.166;2023-08-30T12:55:00;1.60;;;1.50;;
18754;SDS011;35061;47.664;9.166;2023-08-30T12:57:28;2.53;;;1.90;;
18754;SDS011;35061;47.664;9.166;2023-08-30T12:59:56;1.58;;;1.45;;
18754;SDS011;35061;47.664;9.166;2023-08-30T13:02:24;2.67;;;1.60;;
18754;SDS011;35061;47.664;9.166;2023-08-30T13:04:52;1.55;;;1.45;;
18754;SDS011;35061;47.664;9.166;2023-08-30T13:07:20;1.60;;;1.50;;
18754;SDS011;35061;47.664;9.166;2023-08-30T13:09:48;3.00;;;1.50;;
18754;SDS011;35061;47.664;9.166;2023-08-30T13:12:16;2.42;;;1.87;;
18754;SDS011;35061;47.664;9.166;2023-08-30T13:14:44;3.37;;;2.15;;
18754;SDS011;35061;47.664;9.166;2023-08-30T13:17:12;1.30;;;1.20;;
18754;SDS011;35061;47.664;9.166;2023-08-30T13:19:40;1.83;;;1.58;;
18754;SDS011;35061;47.664;9.166;2023-08-30T13:22:08;2.28;;;1.55;;
18754;SDS011;35061;47.664;9.166;2023-08-30T13:24:37;1.90;;;1.40;;
18754;SDS011;35061;47.664;9.166;2023-08-30T13:27:05;1.60;;;1.50;;
18754;SDS011;35061;47.664;9.166;2023-08-30T13:29:33;2.80;;;1.80;;
18754;SDS011;35061;47.664;9.166;2023-08-30T13:32:01;3.35;;;1.83;;
18754;SDS011;35061;47.664;9.166;2023-08-30T13:34:30;4.75;;;2.75;;
18754;SDS011;35061;47.664;9.166;2023-08-30T13:36:58;2.22;;;1.60;;
18754;SDS011;35061;47.664;9.166;2023-08-30T13:39:26;4.30;;;1.87;;
18754;SDS011;35061;47.664;9.166;2023-08-30T13:41:54;2.40;;;1.62;;
18754;SDS011;35061;47.664;9.166;2023-08-30T13:44:22;2.58;;;1.95;;
18754;SDS011;35061;47.664;9.166;2023-08-30T13:46:50;8.60;;;2.75;;
18754;SDS011;35061;47.664;9.166;2023-08-30T13:49:18;2.35;;;1.90;;
18754;SDS011;35061;47.664;9.166;2023-08-30T13:51:48;1.52;;;1.42;;
18754;SDS011;35061;47.664;9.166;2023-08-30T13:54:15;1.58;;;1.48;;
18754;SDS011;35061;47.664;9.166;2023-08-30T13:56:43;2.08;;;1.75;;
18754;SDS011;35061;47.664;9.166;2023-08-30T13:59:11;1.92;;;1.48;;
18754;SDS011;35061;47.664;9.166;2023-08-30T14:01:39;1.60;;;1.50;;
18754;SDS011;35061;47.664;9.166;2023-08-30T14:04:08;1.58;;;1.42;;
18754;SDS011;35061;47.664;9.166;2023-08-30T14:06:36;1.37;;;1.20;;
18754;SDS011;35061;47.664;9.166;2023-08-30T14:09:04;4.07;;;1.77;;
18754;SDS011;35061;47.664;9.166;2023-08-30T14:11:34;3.58;;;1.80;;
18754;SDS011;35061;47.664;9.166;2023-08-30T14:14:05;1.60;;;1.50;;
18754;SDS011;35061;47.664;9.166;2023-08-30T14:16:33;1.73;;;1.30;;
18754;SDS011;35061;47.664;9.166;2023-08-30T14:19:01;1.73;;;1.62;;
18754;SDS011;35061;47.664;9.166;2023-08-30T14:21:33;1.83;;;1.48;;
18754;SDS011;35061;47.664;9.166;2023-08-30T14:24:01;1.87;;;1.45;;
18754;SDS011;35061;47.664;9.166;2023-08-30T14:26:29;2.08;;;1.40;;
18754;SDS011;35061;47.664;9.166;2023-08-30T14:28:57;1.50;;;1.40;;
18754;SDS011;35061;47.664;9.166;2023-08-30T14:31:25;2.90;;;1.60;;
18754;SDS011;35061;47.664;9.166;2023-08-30T14:33:54;1.65;;;1.52;;
18754;SDS011;35061;47.664;9.166;2023-08-30T14:36:26;1.23;;;1.12;;
18754;SDS011;35061;47.664;9.166;2023-08-30T14:38:54;1.35;;;1.25;;
18754;SDS011;35061;47.664;9.166;2023-08-30T14:41:22;1.65;;;1.55;;
18754;SDS011;35061;47.664;9.166;2023-08-30T14:43:50;1.70;;;1.33;;
18754;SDS011;35061;47.664;9.166;2023-08-30T14:46:18;1.37;;;1.27;;
18754;SDS011;35061;47.664;9.166;2023-08-30T14:48:49;1.45;;;1.23;;
18754;SDS011;35061;47.664;9.166;2023-08-30T14:51:18;2.12;;;1.50;;
18754;SDS011;35061;47.664;9.166;2023-08-30T14:53:46;1.62;;;1.30;;
18754;SDS011;35061;47.664;9.166;2023-08-30T14:56:14;1.60;;;1.50;;
18754;SDS011;35061;47.664;9.166;2023-08-30T14:58:42;1.50;;;1.40;;
18754;SDS011;35061;47.664;9.166;2023-08-30T15:01:11;1.55;;;1.20;;
18754;SDS011;35061;47.664;9.166;2023-08-30T15:03:39;1.60;;;1.50;;
18754;SDS011;35061;47.664;9.166;2023-08-30T15:06:07;1.33;;;1.25;;
18754;SDS011;35061;47.664;9.166;2023-08-30T15:08:35;2.08;;;1.50;;
18754;SDS011;35061;47.664;9.166;2023-08-30T15:11:03;2.20;;;1.52;;
18754;SDS011;35061;47.664;9.166;2023-08-30T15:13:31;1.65;;;1.40;;